Hunnewell, Kansas
Current Conditions -  °F | °C
As of 12:55 PM on Wednesday 26 Nov 2014 (Local Time) from KBKN Reporting Station
Overcast Overcast  
Wind Chill: 50°   Ceiling: 11000
Heat Index: 50°   Visibility: 10mi
Dew Point: 27°   Wind: 24mph
Humidity: 40%   Direction: 310°NW
Pressure: 30.17"   Gusts: 33mph
Location:  37.0644°N, 97.4266°W
Report Text: KBKN 261855Z AUTO 31021G29KT 10SM OVC110 10/M03 A3017 RMK AO2
Loading
Personal Weather Stations






























Interactive Weather Map New forecast layout! Learn more

10-Day Weather Forecast

Advertisements
Track Severe Weather on mobile